createdAt,value
2019-04-03T00:00:19.274Z,97671.96
2019-04-03T00:02:46.036Z,97669.45
2019-04-03T00:05:13.152Z,97668.00
2019-04-03T00:07:40.333Z,97668.92
2019-04-03T00:10:08.457Z,97664.98
2019-04-03T00:12:35.912Z,97663.03
2019-04-03T00:15:04.782Z,97669.73
2019-04-03T00:17:31.865Z,97666.78
2019-04-03T00:19:59.123Z,97667.50
2019-04-03T00:22:26.080Z,97670.73
2019-04-03T00:24:53.220Z,97668.65
2019-04-03T00:27:22.257Z,97664.39
2019-04-03T00:29:51.830Z,97664.48
2019-04-03T00:32:18.336Z,97663.03
2019-04-03T00:34:45.202Z,97661.25
2019-04-03T00:37:12.253Z,97661.37
2019-04-03T00:39:39.586Z,97662.47
2019-04-03T00:42:06.350Z,97669.27
2019-04-03T00:44:36.632Z,97665.33
2019-04-03T00:47:03.476Z,97667.63
2019-04-03T00:49:30.504Z,97665.39
2019-04-03T00:51:58.083Z,97667.63
2019-04-03T00:54:26.463Z,97662.23
2019-04-03T00:56:56.201Z,97659.41
2019-04-03T00:59:23.101Z,97651.21
2019-04-03T01:01:50.612Z,97651.05
2019-04-03T01:04:18.294Z,97646.09
2019-04-03T01:06:45.260Z,97647.82
2019-04-03T01:09:12.384Z,97657.12
2019-04-03T01:11:39.499Z,97660.91
2019-04-03T01:14:06.471Z,97662.56
2019-04-03T01:16:34.400Z,97678.06
2019-04-03T01:19:01.860Z,97670.58
2019-04-03T01:21:29.725Z,97668.55
2019-04-03T01:23:59.058Z,97664.25
2019-04-03T01:26:26.102Z,97663.59
2019-04-03T01:28:52.984Z,97664.52
2019-04-03T01:31:20.145Z,97657.80
2019-04-03T01:33:47.253Z,97653.55
2019-04-03T01:36:14.103Z,97656.04
2019-04-03T01:38:41.075Z,97656.13
2019-04-03T01:41:07.969Z,97653.78
2019-04-03T01:43:34.815Z,97649.25
2019-04-03T01:46:02.190Z,97654.52
2019-04-03T01:48:29.212Z,97649.88
2019-04-03T01:50:57.779Z,97648.15
2019-04-03T01:53:27.235Z,97634.30
2019-04-03T01:55:54.477Z,97638.42
2019-04-03T01:58:21.744Z,97635.66
2019-04-03T02:00:49.097Z,97631.83
2019-04-03T02:03:16.596Z,97636.63
2019-04-03T02:05:45.852Z,97633.23
2019-04-03T02:08:14.725Z,97628.16
2019-04-03T02:10:41.671Z,97631.91
2019-04-03T02:13:08.722Z,97628.81
2019-04-03T02:15:35.734Z,97623.14
2019-04-03T02:18:03.001Z,97614.60
2019-04-03T02:20:29.867Z,97621.18
2019-04-03T02:22:59.650Z,97612.12
2019-04-03T02:25:25.331Z,97615.06
2019-04-03T02:27:52.390Z,97612.34
2019-04-03T02:30:19.611Z,97608.62
2019-04-03T02:32:46.723Z,97599.08
2019-04-03T02:35:14.646Z,97589.80
2019-04-03T02:37:42.017Z,97591.08
2019-04-03T02:40:10.103Z,97591.24
2019-04-03T02:42:40.546Z,97597.83
2019-04-03T02:45:07.594Z,97598.05
2019-04-03T02:47:35.026Z,97591.02
2019-04-03T02:50:02.681Z,97590.25
2019-04-03T02:52:29.599Z,97588.23
2019-04-03T02:54:57.124Z,97585.64
2019-04-03T02:57:24.272Z,97584.83
2019-04-03T02:59:51.661Z,97583.61
2019-04-03T03:02:18.882Z,97586.90
2019-04-03T03:04:46.087Z,97594.63
2019-04-03T03:07:13.337Z,97597.02
2019-04-03T03:09:40.379Z,97593.41
2019-04-03T03:12:07.855Z,97592.38
2019-04-03T03:14:39.304Z,97593.75
2019-04-03T03:17:05.411Z,97594.20
2019-04-03T03:19:33.803Z,97587.19
2019-04-03T03:22:02.410Z,97584.71
2019-04-03T03:24:32.905Z,97589.47
2019-04-03T03:27:00.387Z,97580.86
2019-04-03T03:29:28.408Z,97585.85
2019-04-03T03:32:08.222Z,97587.44
2019-04-03T03:34:49.307Z,97579.06
2019-04-03T03:37:00.133Z,97574.30
2019-04-03T03:39:25.031Z,97574.63
2019-04-03T03:41:59.208Z,97566.94
2019-04-03T03:44:27.299Z,97559.45
2019-04-03T03:46:59.350Z,97561.27
2019-04-03T03:49:27.672Z,97560.46
2019-04-03T03:51:55.199Z,97552.34
2019-04-03T03:54:24.436Z,97552.98
2019-04-03T03:56:52.105Z,97557.39
2019-04-03T03:59:19.655Z,97559.59
2019-04-03T04:01:48.682Z,97554.31
2019-04-03T04:04:16.240Z,97556.48
2019-04-03T04:06:43.198Z,97552.27
2019-04-03T04:09:10.311Z,97546.87
2019-04-03T04:11:38.365Z,97545.97
2019-04-03T04:14:05.450Z,97543.25
2019-04-03T04:16:36.973Z,97541.09
2019-04-03T04:19:03.939Z,97535.55
2019-04-03T04:21:31.369Z,97533.19
2019-04-03T04:23:58.914Z,97535.12
2019-04-03T04:26:26.416Z,97533.84
2019-04-03T04:28:53.890Z,97526.05
2019-04-03T04:31:20.991Z,97522.39
2019-04-03T04:33:48.369Z,97523.98
2019-04-03T04:36:15.456Z,97521.61
2019-04-03T04:38:42.888Z,97512.45
2019-04-03T04:41:09.772Z,97514.36
2019-04-03T04:43:37.644Z,97511.20
2019-04-03T04:46:05.355Z,97510.84
2019-04-03T04:48:32.225Z,97501.56
2019-04-03T04:50:59.308Z,97505.86
2019-04-03T04:53:29.269Z,97518.52
2019-04-03T04:55:54.985Z,97514.88
2019-04-03T04:58:22.449Z,97519.35
2019-04-03T05:00:50.671Z,97511.68
2019-04-03T05:03:18.042Z,97518.16
2019-04-03T05:05:45.070Z,97521.66
2019-04-03T05:08:12.743Z,97514.30
2019-04-03T05:10:39.625Z,97518.29
2019-04-03T05:13:06.559Z,97510.38
2019-04-03T05:15:33.572Z,97511.48
2019-04-03T05:18:01.202Z,97514.86
2019-04-03T05:20:28.058Z,97515.66
2019-04-03T05:22:55.738Z,97512.05
2019-04-03T05:25:22.825Z,97505.81
2019-04-03T05:27:50.244Z,97508.27
2019-04-03T05:30:32.237Z,97503.52
2019-04-03T05:32:59.613Z,97504.44
2019-04-03T05:35:26.813Z,97510.34
2019-04-03T05:37:53.859Z,97506.50
2019-04-03T05:40:20.762Z,97506.27
2019-04-03T05:42:47.904Z,97507.61
2019-04-03T05:45:14.697Z,97511.65
2019-04-03T05:47:41.533Z,97514.58
2019-04-03T05:50:08.541Z,97515.03
2019-04-03T05:52:35.800Z,97509.64
2019-04-03T05:55:05.322Z,97516.20
2019-04-03T05:57:32.229Z,97520.04
2019-04-03T06:00:01.856Z,97512.42
2019-04-03T06:02:28.590Z,97515.69
2019-04-03T06:04:55.710Z,97515.22
2019-04-03T06:07:22.739Z,97509.31
2019-04-03T06:09:49.585Z,97514.83
2019-04-03T06:12:18.742Z,97509.73
2019-04-03T06:14:45.525Z,97507.27
2019-04-03T06:17:12.421Z,97500.00
2019-04-03T06:19:39.898Z,97492.79
2019-04-03T06:22:09.845Z,97490.41
2019-04-03T06:24:35.967Z,97499.77
2019-04-03T06:27:03.911Z,97500.01
2019-04-03T06:29:30.792Z,97513.97
2019-04-03T06:31:58.461Z,97511.49
2019-04-03T06:34:25.915Z,97510.27
2019-04-03T06:36:53.107Z,97511.11
2019-04-03T06:39:22.316Z,97510.44
2019-04-03T06:41:48.885Z,97502.41
2019-04-03T06:44:15.706Z,97487.63
2019-04-03T06:46:42.887Z,97484.55
2019-04-03T06:49:11.754Z,97497.31
2019-04-03T06:51:39.066Z,97492.41
2019-04-03T06:54:07.848Z,97495.68
2019-04-03T06:56:34.799Z,97485.52
2019-04-03T06:59:02.220Z,97480.77
2019-04-03T07:01:30.638Z,97484.51
2019-04-03T07:03:57.693Z,97487.34
2019-04-03T07:06:24.699Z,97485.64
2019-04-03T07:08:51.575Z,97485.31
2019-04-03T07:11:23.756Z,97483.73
2019-04-03T07:13:49.768Z,97481.00
2019-04-03T07:16:16.528Z,97476.81
2019-04-03T07:18:43.785Z,97470.47
2019-04-03T07:21:10.938Z,97471.82
2019-04-03T07:23:38.014Z,97473.73
2019-04-03T07:26:05.646Z,97470.33
2019-04-03T07:28:34.495Z,97482.78
2019-04-03T07:31:02.198Z,97477.36
2019-04-03T07:33:29.463Z,97484.40
2019-04-03T07:35:56.409Z,97480.21
2019-04-03T07:38:23.491Z,97483.02
2019-04-03T07:40:51.991Z,97490.11
2019-04-03T07:43:20.361Z,97495.02
2019-04-03T07:45:47.216Z,97499.11
2019-04-03T07:48:14.405Z,97487.56
2019-04-03T07:50:42.031Z,97495.70
2019-04-03T07:53:09.351Z,97492.14
2019-04-03T07:55:38.199Z,97500.51
2019-04-03T07:58:05.095Z,97495.16
2019-04-03T08:00:32.415Z,97495.31
2019-04-03T08:02:59.462Z,97495.10
2019-04-03T08:05:30.995Z,97497.81
2019-04-03T08:07:58.163Z,97501.53
2019-04-03T08:10:25.411Z,97498.13
2019-04-03T08:12:52.197Z,97493.31
2019-04-03T08:15:19.314Z,97478.95
2019-04-03T08:17:49.194Z,97486.19
2019-04-03T08:20:16.247Z,97492.86
2019-04-03T08:22:43.007Z,97490.22
2019-04-03T08:25:11.825Z,97486.84
2019-04-03T08:27:39.446Z,97482.31
2019-04-03T08:30:08.637Z,97477.45
2019-04-03T08:32:36.343Z,97463.20
2019-04-03T08:35:18.720Z,97459.36
2019-04-03T08:37:35.292Z,97460.59
2019-04-03T08:40:05.303Z,97459.66
2019-04-03T08:42:32.914Z,97474.44
2019-04-03T08:45:00.229Z,97482.58
2019-04-03T08:47:27.081Z,97486.44
2019-04-03T08:49:56.387Z,97489.30
2019-04-03T08:52:22.859Z,97487.84
2019-04-03T08:54:50.336Z,97489.09
2019-04-03T08:57:19.927Z,97495.31
2019-04-03T08:59:46.345Z,97501.30
2019-04-03T09:02:13.912Z,97504.80
2019-04-03T09:04:41.455Z,97505.48
2019-04-03T09:07:08.323Z,97504.47
2019-04-03T09:09:35.740Z,97503.24
2019-04-03T09:12:03.174Z,97500.78
2019-04-03T09:14:30.382Z,97483.93
2019-04-03T09:17:03.540Z,97480.89
2019-04-03T09:19:32.744Z,97479.31
2019-04-03T09:22:00.515Z,97474.69
2019-04-03T09:24:29.628Z,97469.27
2019-04-03T09:26:57.070Z,97468.35
2019-04-03T09:29:24.182Z,97477.32
2019-04-03T09:31:52.495Z,97469.86
2019-04-03T09:34:20.673Z,97462.39
2019-04-03T09:36:48.115Z,97459.23
2019-04-03T09:39:15.133Z,97455.16
2019-04-03T09:41:42.067Z,97452.30
2019-04-03T09:44:11.374Z,97454.66
2019-04-03T09:46:38.164Z,97447.03
2019-04-03T09:49:05.730Z,97445.56
2019-04-03T09:51:34.345Z,97451.40
2019-04-03T09:54:01.433Z,97446.88
2019-04-03T09:56:31.059Z,97440.56
2019-04-03T09:58:58.142Z,97440.27
2019-04-03T10:01:25.365Z,97452.59
2019-04-03T10:03:55.068Z,97446.16
2019-04-03T10:06:21.461Z,97447.25
2019-04-03T10:08:48.628Z,97445.41
2019-04-03T10:11:17.700Z,97439.71
2019-04-03T10:13:44.655Z,97439.16
2019-04-03T10:16:11.410Z,97435.12
2019-04-03T10:18:39.074Z,97424.59
2019-04-03T10:21:08.067Z,97423.95
2019-04-03T10:23:34.940Z,97438.33
2019-04-03T10:26:02.299Z,97434.39
2019-04-03T10:28:29.213Z,97427.06
2019-04-03T10:30:57.169Z,97421.31
2019-04-03T10:33:24.428Z,97417.05
2019-04-03T10:35:51.548Z,97423.03
2019-04-03T10:38:19.041Z,97421.45
2019-04-03T10:40:46.553Z,97420.41
2019-04-03T10:43:13.899Z,97428.06
2019-04-03T10:45:41.660Z,97431.91
2019-04-03T10:48:09.030Z,97427.09
2019-04-03T10:50:37.885Z,97426.64
2019-04-03T10:53:05.515Z,97424.05
2019-04-03T10:55:32.628Z,97420.41
2019-04-03T10:58:01.874Z,97417.81
2019-04-03T11:00:29.439Z,97420.55
2019-04-03T11:02:56.594Z,97411.91
2019-04-03T11:05:23.823Z,97415.41
2019-04-03T11:07:53.025Z,97412.69
2019-04-03T11:10:23.362Z,97412.45
2019-04-03T11:12:49.004Z,97415.75
2019-04-03T11:15:16.953Z,97415.77
2019-04-03T11:17:44.615Z,97397.08
2019-04-03T11:20:14.170Z,97410.11
2019-04-03T11:22:43.298Z,97413.84
2019-04-03T11:25:15.298Z,97416.44
2019-04-03T11:27:44.660Z,97411.91
2019-04-03T11:30:17.635Z,97403.44
2019-04-03T11:32:43.715Z,97408.08
2019-04-03T11:35:15.017Z,97413.06
2019-04-03T11:37:42.739Z,97399.27
2019-04-03T11:40:11.772Z,97404.01
2019-04-03T11:42:38.958Z,97409.22
2019-04-03T11:45:09.197Z,97404.25
2019-04-03T11:47:36.454Z,97399.81
2019-04-03T11:50:07.995Z,97405.59
2019-04-03T11:52:35.290Z,97401.30
2019-04-03T11:55:04.724Z,97402.21
2019-04-03T11:57:31.912Z,97405.28
2019-04-03T11:59:59.118Z,97410.71
2019-04-03T12:02:26.653Z,97402.89
2019-04-03T12:04:53.474Z,97397.01
2019-04-03T12:07:20.710Z,97393.74
2019-04-03T12:09:50.491Z,97390.12
2019-04-03T12:12:17.533Z,97386.28
2019-04-03T12:14:44.880Z,97384.34
2019-04-03T12:17:12.397Z,97387.28
2019-04-03T12:19:39.465Z,97386.50
2019-04-03T12:22:06.884Z,97391.58
2019-04-03T12:24:33.982Z,97386.95
2019-04-03T12:27:01.038Z,97383.44
2019-04-03T12:29:30.300Z,97379.04
2019-04-03T12:31:58.567Z,97382.98
2019-04-03T12:34:25.582Z,97378.91
2019-04-03T12:36:52.935Z,97375.28
2019-04-03T12:39:27.879Z,97374.70
2019-04-03T12:41:55.501Z,97368.83
2019-04-03T12:44:23.415Z,97369.86
2019-04-03T12:46:51.521Z,97364.98
2019-04-03T12:49:20.054Z,97359.00
2019-04-03T12:51:47.989Z,97350.19
2019-04-03T12:54:15.381Z,97341.37
2019-04-03T12:56:42.475Z,97326.20
2019-04-03T12:59:10.013Z,97317.98
2019-04-03T13:01:37.789Z,97324.97
2019-04-03T13:04:05.745Z,97321.64
2019-04-03T13:06:32.757Z,97318.82
2019-04-03T13:09:01.726Z,97313.30
2019-04-03T13:11:29.271Z,97297.22
2019-04-03T13:13:57.266Z,97296.54
2019-04-03T13:16:24.789Z,97276.77
2019-04-03T13:18:52.210Z,97271.49
2019-04-03T13:21:19.164Z,97284.45
2019-04-03T13:23:46.339Z,97306.91
2019-04-03T13:26:14.362Z,97336.58
2019-04-03T13:28:42.070Z,97330.84
2019-04-03T13:31:09.690Z,97327.11
2019-04-03T13:33:38.710Z,97327.57
2019-04-03T13:36:06.259Z,97335.03
2019-04-03T13:38:33.164Z,97333.22
2019-04-03T13:41:04.628Z,97316.95
2019-04-03T13:43:31.620Z,97319.30
2019-04-03T13:45:59.029Z,97299.77
2019-04-03T13:48:26.416Z,97300.66
2019-04-03T13:50:55.172Z,97292.63
2019-04-03T13:53:25.381Z,97279.64
2019-04-03T13:55:51.492Z,97276.35
2019-04-03T13:58:22.129Z,97277.16
2019-04-03T14:00:58.618Z,97269.34
2019-04-03T14:03:19.129Z,97272.27
2019-04-03T14:05:47.053Z,97285.16
2019-04-03T14:08:14.354Z,97284.48
2019-04-03T14:10:41.161Z,97288.09
2019-04-03T14:13:10.866Z,97288.90
2019-04-03T14:15:41.711Z,97289.44
2019-04-03T14:18:09.417Z,97281.83
2019-04-03T14:20:36.595Z,97291.03
2019-04-03T14:23:04.742Z,97296.57
2019-04-03T14:25:37.092Z,97303.28
2019-04-03T14:28:02.848Z,97293.07
2019-04-03T14:30:32.363Z,97288.31
2019-04-03T14:33:01.913Z,97290.02
2019-04-03T14:35:50.375Z,97277.67
2019-04-03T14:37:59.889Z,97269.80
2019-04-03T14:40:27.248Z,97267.05
2019-04-03T14:42:57.837Z,97263.88
2019-04-03T14:45:26.365Z,97266.36
2019-04-03T14:47:54.878Z,97264.55
2019-04-03T14:50:22.457Z,97267.96
2019-04-03T14:52:50.574Z,97262.98
2019-04-03T14:55:20.755Z,97273.78
2019-04-03T14:57:46.669Z,97276.40
2019-04-03T15:00:26.439Z,97277.30
2019-04-03T15:02:43.619Z,97266.78
2019-04-03T15:05:11.030Z,97262.23
2019-04-03T15:07:38.553Z,97272.75
2019-04-03T15:10:07.407Z,97276.44
2019-04-03T15:12:40.699Z,97276.62
2019-04-03T15:15:09.697Z,97275.23
2019-04-03T15:17:38.944Z,97272.67
2019-04-03T15:20:10.400Z,97299.39
2019-04-03T15:22:37.586Z,97293.94
2019-04-03T15:25:06.710Z,97292.00
2019-04-03T15:27:33.695Z,97308.95
2019-04-03T15:30:01.066Z,97314.25
2019-04-03T15:32:28.640Z,97328.55
2019-04-03T15:35:00.983Z,97336.20
2019-04-03T15:37:28.159Z,97342.13
2019-04-03T15:39:58.237Z,97337.80
2019-04-03T15:42:24.685Z,97333.84
2019-04-03T15:44:52.502Z,97331.05
2019-04-03T15:47:34.324Z,97327.16
2019-04-03T15:49:51.524Z,97346.01
2019-04-03T15:52:19.184Z,97351.14
2019-04-03T15:54:46.365Z,97356.67
2019-04-03T15:57:13.640Z,97357.56
2019-04-03T15:59:40.931Z,97357.48
2019-04-03T16:02:10.505Z,97349.05
2019-04-03T16:04:37.204Z,97335.95
2019-04-03T16:07:05.115Z,97342.88
2019-04-03T16:09:35.199Z,97346.51
2019-04-03T16:12:04.162Z,97335.14
2019-04-03T16:14:31.884Z,97332.36
2019-04-03T16:17:01.719Z,97346.25
2019-04-03T16:19:28.169Z,97345.54
2019-04-03T16:21:57.368Z,97337.45
2019-04-03T16:24:24.830Z,97337.19
2019-04-03T16:26:53.175Z,97330.84
2019-04-03T16:29:22.255Z,97333.53
2019-04-03T16:31:54.122Z,97328.38
2019-04-03T16:34:23.034Z,97336.08
2019-04-03T16:36:50.803Z,97334.09
2019-04-03T16:39:19.181Z,97325.23
2019-04-03T16:41:46.650Z,97319.91
2019-04-03T16:44:13.512Z,97328.95
2019-04-03T16:46:42.123Z,97331.09
2019-04-03T16:49:11.127Z,97339.28
2019-04-03T16:51:40.554Z,97331.98
2019-04-03T16:54:10.345Z,97335.79
2019-04-03T16:56:38.636Z,97340.15
2019-04-03T16:59:07.312Z,97350.16
2019-04-03T17:01:34.944Z,97359.03
2019-04-03T17:04:03.913Z,97362.55
2019-04-03T17:06:30.814Z,97364.05
2019-04-03T17:08:58.641Z,97349.20
2019-04-03T17:11:26.337Z,97333.63
2019-04-03T17:13:54.292Z,97350.72
2019-04-03T17:16:21.407Z,97371.27
2019-04-03T17:18:48.175Z,97381.41
2019-04-03T17:21:15.325Z,97380.30
2019-04-03T17:23:44.828Z,97391.19
2019-04-03T17:26:11.335Z,97384.11
2019-04-03T17:28:40.522Z,97381.89
2019-04-03T17:31:06.851Z,97377.21
2019-04-03T17:33:35.627Z,97346.42
2019-04-03T17:36:03.291Z,97338.78
2019-04-03T17:38:32.583Z,97329.03
2019-04-03T17:40:59.590Z,97342.44
2019-04-03T17:43:28.526Z,97348.77
2019-04-03T17:45:55.389Z,97362.73
2019-04-03T17:48:22.835Z,97358.78
2019-04-03T17:50:51.425Z,97343.94
2019-04-03T17:53:18.880Z,97348.05
2019-04-03T17:55:46.081Z,97367.89
2019-04-03T17:58:12.851Z,97377.97
2019-04-03T18:00:41.315Z,97360.43
2019-04-03T18:03:08.566Z,97373.97
2019-04-03T18:05:36.601Z,97378.88
2019-04-03T18:08:03.489Z,97346.00
2019-04-03T18:10:31.088Z,97354.72
2019-04-03T18:12:58.013Z,97361.31
2019-04-03T18:15:27.223Z,97345.28
2019-04-03T18:17:54.689Z,97342.58
2019-04-03T18:20:23.409Z,97354.22
2019-04-03T18:22:55.284Z,97354.04
2019-04-03T18:25:22.571Z,97350.66
2019-04-03T18:27:49.497Z,97343.66
2019-04-03T18:30:18.760Z,97347.66
2019-04-03T18:32:46.038Z,97361.98
2019-04-03T18:35:14.426Z,97349.22
2019-04-03T18:37:41.534Z,97345.22
2019-04-03T18:40:10.201Z,97351.57
2019-04-03T18:42:37.503Z,97356.09
2019-04-03T18:45:05.591Z,97360.24
2019-04-03T18:47:41.101Z,97368.61
2019-04-03T18:50:05.371Z,97370.63
2019-04-03T18:52:34.992Z,97367.30
2019-04-03T18:55:05.439Z,97377.51
2019-04-03T18:57:32.513Z,97374.33
2019-04-03T19:00:00.678Z,97380.34
2019-04-03T19:02:28.272Z,97395.22
2019-04-03T19:05:02.008Z,97406.62
2019-04-03T19:07:24.397Z,97412.92
2019-04-03T19:09:52.458Z,97392.84
2019-04-03T19:12:19.809Z,97381.39
2019-04-03T19:14:48.971Z,97390.36
2019-04-03T19:17:20.427Z,97389.61
2019-04-03T19:19:47.396Z,97398.36
2019-04-03T19:22:19.116Z,97409.47
2019-04-03T19:24:47.098Z,97422.95
2019-04-03T19:27:14.428Z,97427.70
2019-04-03T19:29:44.435Z,97411.73
2019-04-03T19:32:12.198Z,97398.20
2019-04-03T19:34:40.060Z,97377.02
2019-04-03T19:37:06.919Z,97375.80
2019-04-03T19:39:33.839Z,97381.05
2019-04-03T19:42:00.843Z,97377.74
2019-04-03T19:44:27.715Z,97380.03
2019-04-03T19:46:54.978Z,97380.69
2019-04-03T19:49:22.439Z,97380.02
2019-04-03T19:51:49.524Z,97379.89
2019-04-03T19:54:17.516Z,97391.59
2019-04-03T19:56:45.180Z,97395.06
2019-04-03T19:59:14.567Z,97398.88
2019-04-03T20:01:41.867Z,97410.07
2019-04-03T20:04:10.097Z,97393.01
2019-04-03T20:06:37.667Z,97383.21
2019-04-03T20:09:08.381Z,97386.32
2019-04-03T20:11:35.934Z,97385.09
2019-04-03T20:14:03.925Z,97383.38
2019-04-03T20:16:31.006Z,97368.27
2019-04-03T20:18:58.211Z,97364.96
2019-04-03T20:21:25.402Z,97351.90
2019-04-03T20:23:52.439Z,97363.41
2019-04-03T20:26:19.806Z,97353.39
2019-04-03T20:28:47.335Z,97348.41
2019-04-03T20:31:14.888Z,97343.06
2019-04-03T20:33:42.888Z,97336.09
2019-04-03T20:36:10.235Z,97325.26
2019-04-03T20:38:37.485Z,97327.66
2019-04-03T20:41:04.863Z,97334.88
2019-04-03T20:43:32.291Z,97334.31
2019-04-03T20:45:59.241Z,97335.25
2019-04-03T20:48:28.761Z,97337.22
2019-04-03T20:50:56.458Z,97337.76
2019-04-03T20:53:24.082Z,97348.48
2019-04-03T20:55:51.509Z,97352.98
2019-04-03T20:58:19.456Z,97349.48
2019-04-03T21:00:49.427Z,97346.98
2019-04-03T21:03:16.217Z,97351.80
2019-04-03T21:05:43.251Z,97345.56
2019-04-03T21:08:10.341Z,97349.84
2019-04-03T21:10:37.307Z,97351.52
2019-04-03T21:13:04.612Z,97347.52
2019-04-03T21:15:32.180Z,97340.74
2019-04-03T21:18:00.106Z,97343.56
2019-04-03T21:20:27.076Z,97335.72
2019-04-03T21:22:54.956Z,97338.28
2019-04-03T21:25:22.169Z,97344.27
2019-04-03T21:27:49.549Z,97352.27
2019-04-03T21:30:17.681Z,97356.39
2019-04-03T21:32:44.612Z,97351.05
2019-04-03T21:35:13.539Z,97348.12
2019-04-03T21:37:40.700Z,97347.59
2019-04-03T21:40:08.324Z,97358.66
2019-04-03T21:42:35.575Z,97358.29
2019-04-03T21:45:07.586Z,97360.94
2019-04-03T21:47:35.029Z,97350.19
2019-04-03T21:50:03.873Z,97355.66
2019-04-03T21:52:33.741Z,97377.98
2019-04-03T21:55:00.925Z,97377.50
2019-04-03T21:57:30.997Z,97370.77
2019-04-03T21:59:58.802Z,97364.87
2019-04-03T22:02:25.824Z,97372.41
2019-04-03T22:04:53.956Z,97381.72
2019-04-03T22:07:24.004Z,97372.60
2019-04-03T22:09:50.856Z,97359.12
2019-04-03T22:12:17.756Z,97358.52
2019-04-03T22:14:45.074Z,97358.23
2019-04-03T22:17:15.403Z,97366.47
2019-04-03T22:19:42.171Z,97380.20
2019-04-03T22:22:09.776Z,97364.76
2019-04-03T22:24:37.748Z,97354.89
2019-04-03T22:27:05.821Z,97350.02
2019-04-03T22:29:32.598Z,97358.77
2019-04-03T22:32:00.099Z,97363.43
2019-04-03T22:34:27.954Z,97362.33
2019-04-03T22:36:56.572Z,97343.78
2019-04-03T22:39:23.779Z,97343.33
2019-04-03T22:41:51.001Z,97359.07
2019-04-03T22:44:19.067Z,97354.52
2019-04-03T22:46:46.399Z,97337.55
2019-04-03T22:49:13.237Z,97342.42
2019-04-03T22:51:40.156Z,97332.20
2019-04-03T22:54:07.570Z,97326.56
2019-04-03T22:56:34.604Z,97325.28
2019-04-03T22:59:01.741Z,97321.64
2019-04-03T23:01:29.864Z,97323.99
2019-04-03T23:03:58.104Z,97326.66
2019-04-03T23:06:25.370Z,97329.25
2019-04-03T23:08:53.881Z,97307.27
2019-04-03T23:11:23.983Z,97305.19
2019-04-03T23:13:51.254Z,97314.67
2019-04-03T23:16:18.714Z,97303.54
2019-04-03T23:18:47.524Z,97312.26
2019-04-03T23:21:15.234Z,97309.89
2019-04-03T23:23:44.083Z,97296.22
2019-04-03T23:26:11.417Z,97289.72
2019-04-03T23:28:40.581Z,97293.14
2019-04-03T23:31:08.228Z,97298.28
2019-04-03T23:33:35.965Z,97293.03
2019-04-03T23:36:04.568Z,97280.43
2019-04-03T23:38:37.302Z,97267.95
2019-04-03T23:41:06.170Z,97274.27
2019-04-03T23:43:34.295Z,97275.13
2019-04-03T23:46:02.611Z,97280.75
2019-04-03T23:48:29.763Z,97262.39
2019-04-03T23:50:57.260Z,97251.72
2019-04-03T23:53:26.894Z,97255.22
2019-04-03T23:55:57.975Z,97247.14
2019-04-03T23:58:26.749Z,97237.37
